createdAt,value
2018-09-13T00:00:24.433Z,14.30
2018-09-13T00:02:52.657Z,9.03
2018-09-13T00:05:20.850Z,10.27
2018-09-13T00:07:49.059Z,11.53
2018-09-13T00:10:17.229Z,8.60
2018-09-13T00:12:45.479Z,9.30
2018-09-13T00:15:13.731Z,10.83
2018-09-13T00:17:41.934Z,9.93
2018-09-13T00:20:10.126Z,8.43
2018-09-13T00:22:38.331Z,8.47
2018-09-13T00:25:06.570Z,9.20
2018-09-13T00:27:34.780Z,10.83
2018-09-13T00:30:02.988Z,8.87
2018-09-13T00:32:31.197Z,9.10
2018-09-13T00:34:59.406Z,8.57
2018-09-13T00:37:27.625Z,11.20
2018-09-13T00:40:02.162Z,10.00
2018-09-13T00:42:30.385Z,11.40
2018-09-13T00:44:58.560Z,11.63
2018-09-13T00:47:26.761Z,10.07
2018-09-13T00:49:54.938Z,11.07
2018-09-13T00:52:23.149Z,10.23
2018-09-13T00:54:51.350Z,11.80
2018-09-13T00:57:19.534Z,9.30
2018-09-13T00:59:47.736Z,11.03
2018-09-13T01:02:15.954Z,9.37
2018-09-13T01:04:44.145Z,11.27
2018-09-13T01:07:12.341Z,10.07
2018-09-13T01:09:40.924Z,9.10
2018-09-13T01:12:09.117Z,15.40
2018-09-13T01:14:37.390Z,8.80
2018-09-13T01:17:12.321Z,9.40
2018-09-13T01:19:40.613Z,14.20
2018-09-13T01:22:08.813Z,9.47
2018-09-13T01:24:37.162Z,8.67
2018-09-13T01:27:05.372Z,13.67
2018-09-13T01:29:33.602Z,7.87
2018-09-13T01:32:01.808Z,8.77
2018-09-13T01:34:30.028Z,10.80
2018-09-13T01:36:58.265Z,9.30
2018-09-13T01:39:26.523Z,9.23
2018-09-13T01:41:54.763Z,14.63
2018-09-13T01:44:22.984Z,8.43
2018-09-13T01:46:51.161Z,10.83
2018-09-13T01:49:19.382Z,8.47
2018-09-13T01:51:47.617Z,9.53
2018-09-13T01:54:15.911Z,7.90
2018-09-13T01:56:44.105Z,11.17
2018-09-13T01:59:12.313Z,8.43
2018-09-13T02:01:40.505Z,11.73
2018-09-13T02:04:08.716Z,11.17
2018-09-13T02:06:37.554Z,11.13
2018-09-13T02:09:07.942Z,10.07
2018-09-13T02:11:36.138Z,8.73
2018-09-13T02:14:04.325Z,10.33
2018-09-13T02:16:32.538Z,7.87
2018-09-13T02:19:00.775Z,8.10
2018-09-13T02:21:28.999Z,9.33
2018-09-13T02:23:57.210Z,9.13
2018-09-13T02:26:25.422Z,9.77
2018-09-13T02:28:53.674Z,10.83
2018-09-13T02:31:21.986Z,9.63
2018-09-13T02:33:50.227Z,8.90
2018-09-13T02:36:18.418Z,7.37
2018-09-13T02:38:46.678Z,7.67
2018-09-13T02:41:14.901Z,7.97
2018-09-13T02:43:43.126Z,6.97
2018-09-13T02:46:11.349Z,6.70
2018-09-13T02:48:39.607Z,6.83
2018-09-13T02:51:07.826Z,6.60
2018-09-13T02:53:36.075Z,7.50
2018-09-13T02:56:04.292Z,11.00
2018-09-13T02:58:32.486Z,11.80
2018-09-13T03:01:00.741Z,8.13
2018-09-13T03:03:28.992Z,9.00
2018-09-13T03:05:57.532Z,8.20
2018-09-13T03:08:25.791Z,7.83
2018-09-13T03:10:53.969Z,6.97
2018-09-13T03:13:22.194Z,6.33
2018-09-13T03:15:50.429Z,7.93
2018-09-13T03:18:18.632Z,7.87
2018-09-13T03:20:46.847Z,5.80
2018-09-13T03:23:15.087Z,7.77
2018-09-13T03:25:43.307Z,6.33
2018-09-13T03:28:11.617Z,7.00
2018-09-13T03:30:39.856Z,8.47
2018-09-13T03:33:08.287Z,7.10
2018-09-13T03:35:36.573Z,5.10
2018-09-13T03:38:05.001Z,6.50
2018-09-13T03:40:33.205Z,4.77
2018-09-13T03:43:08.049Z,7.80
2018-09-13T03:45:36.242Z,7.53
2018-09-13T03:48:04.434Z,4.90
2018-09-13T03:50:32.681Z,5.23
2018-09-13T03:53:00.896Z,7.13
2018-09-13T03:55:29.165Z,4.70
2018-09-13T03:57:57.373Z,4.87
2018-09-13T04:00:25.612Z,5.43
2018-09-13T04:02:53.802Z,5.10
2018-09-13T04:05:21.982Z,5.87
2018-09-13T04:07:50.511Z,6.80
2018-09-13T04:10:18.722Z,5.43
2018-09-13T04:12:47.773Z,5.80
2018-09-13T04:15:16.009Z,5.40
2018-09-13T04:17:44.202Z,5.87
2018-09-13T04:20:12.522Z,6.60
2018-09-13T04:22:40.805Z,4.63
2018-09-13T04:25:08.933Z,5.07
2018-09-13T04:27:37.137Z,5.03
2018-09-13T04:30:05.453Z,7.30
2018-09-13T04:32:36.730Z,4.37
2018-09-13T04:35:05.022Z,5.90
2018-09-13T04:37:33.277Z,5.77
2018-09-13T04:40:01.482Z,4.27
2018-09-13T04:42:29.761Z,7.67
2018-09-13T04:44:57.981Z,4.70
2018-09-13T04:47:26.307Z,5.10
2018-09-13T04:49:54.521Z,7.87
2018-09-13T04:52:22.915Z,5.40
2018-09-13T04:54:51.145Z,6.57
2018-09-13T04:57:19.362Z,6.33
2018-09-13T04:59:47.586Z,5.07
2018-09-13T05:02:15.823Z,7.60
2018-09-13T05:04:44.119Z,4.07
2018-09-13T05:07:13.027Z,6.53
2018-09-13T05:09:41.641Z,4.60
2018-09-13T05:12:09.825Z,4.70
2018-09-13T05:14:38.092Z,4.13
2018-09-13T05:17:06.337Z,7.60
2018-09-13T05:19:34.609Z,5.30
2018-09-13T05:22:02.819Z,3.83
2018-09-13T05:24:31.150Z,6.13
2018-09-13T05:26:59.948Z,5.97
2018-09-13T05:29:28.157Z,4.30
2018-09-13T05:31:56.434Z,5.83
2018-09-13T05:34:24.649Z,7.07
2018-09-13T05:36:52.875Z,7.33
2018-09-13T05:39:21.141Z,5.27
2018-09-13T05:41:49.506Z,7.23
2018-09-13T05:44:17.712Z,4.53
2018-09-13T05:46:45.921Z,6.90
2018-09-13T05:49:14.142Z,4.80
2018-09-13T05:51:42.342Z,3.63
2018-09-13T05:54:10.545Z,4.70
2018-09-13T05:56:38.797Z,5.93
2018-09-13T05:59:07.023Z,7.27
2018-09-13T06:01:35.266Z,5.10
2018-09-13T06:04:03.483Z,5.03
2018-09-13T06:06:31.697Z,9.67
2018-09-13T06:08:59.988Z,6.20
2018-09-13T06:11:28.261Z,6.73
2018-09-13T06:13:56.858Z,6.27
2018-09-13T06:16:25.119Z,7.67
2018-09-13T06:18:53.333Z,9.47
2018-09-13T06:21:21.578Z,5.90
2018-09-13T06:23:49.859Z,9.80
2018-09-13T06:26:18.145Z,8.90
2018-09-13T06:28:46.370Z,5.93
2018-09-13T06:31:14.639Z,6.17
2018-09-13T06:33:42.886Z,6.80
2018-09-13T06:36:11.145Z,10.60
2018-09-13T06:38:39.484Z,5.83
2018-09-13T06:41:07.722Z,5.77
2018-09-13T06:43:35.949Z,6.37
2018-09-13T06:46:04.133Z,6.83
2018-09-13T06:48:32.390Z,7.07
2018-09-13T06:51:00.570Z,7.80
2018-09-13T06:53:28.857Z,7.77
2018-09-13T06:55:57.104Z,9.07
2018-09-13T06:58:25.365Z,6.00
2018-09-13T07:00:53.612Z,8.03
2018-09-13T07:03:21.791Z,7.30
2018-09-13T07:05:50.008Z,8.00
2018-09-13T07:08:18.249Z,8.13
2018-09-13T07:10:46.565Z,8.20
2018-09-13T07:13:14.821Z,6.07
2018-09-13T07:15:43.093Z,6.50
2018-09-13T07:18:11.293Z,9.23
2018-09-13T07:20:39.521Z,11.27
2018-09-13T07:23:07.731Z,6.50
2018-09-13T07:25:35.921Z,7.30
2018-09-13T07:28:04.101Z,8.43
2018-09-13T07:30:32.293Z,7.53
2018-09-13T07:33:00.552Z,7.47
2018-09-13T07:35:28.764Z,7.30
2018-09-13T07:37:57.005Z,6.27
2018-09-13T07:40:25.183Z,6.70
2018-09-13T07:42:53.449Z,6.70
2018-09-13T07:45:21.580Z,6.93
2018-09-13T07:47:49.791Z,6.57
2018-09-13T07:50:18.017Z,6.10
2018-09-13T07:52:46.246Z,7.30
2018-09-13T07:55:14.581Z,6.47
2018-09-13T07:57:42.798Z,8.10
2018-09-13T08:00:11.015Z,7.13
2018-09-13T08:02:39.194Z,6.13
2018-09-13T08:05:07.442Z,5.93
2018-09-13T08:07:35.648Z,6.90
2018-09-13T08:10:03.931Z,7.57
2018-09-13T08:12:32.160Z,10.50
2018-09-13T08:15:00.507Z,5.90
2018-09-13T08:17:28.666Z,6.63
2018-09-13T08:19:56.877Z,5.73
2018-09-13T08:22:25.351Z,5.37
2018-09-13T08:24:53.626Z,7.97
2018-09-13T08:27:21.880Z,7.07
2018-09-13T08:29:50.072Z,12.53
2018-09-13T08:32:18.298Z,8.10
2018-09-13T08:34:46.608Z,6.20
2018-09-13T08:37:14.749Z,6.27
2018-09-13T08:39:42.941Z,4.93
2018-09-13T08:42:11.254Z,8.53
2018-09-13T08:44:39.453Z,8.50
2018-09-13T08:47:07.692Z,6.23
2018-09-13T08:49:35.920Z,5.97
2018-09-13T08:52:04.226Z,6.77
2018-09-13T08:54:32.429Z,6.97
2018-09-13T08:57:00.649Z,9.67
2018-09-13T08:59:29.203Z,5.50
2018-09-13T09:01:57.402Z,4.53
2018-09-13T09:04:25.642Z,5.27
2018-09-13T09:06:53.834Z,4.47
2018-09-13T09:09:22.072Z,4.70
2018-09-13T09:11:50.332Z,4.40
2018-09-13T09:14:18.521Z,3.53
2018-09-13T09:16:46.727Z,4.33
2018-09-13T09:19:14.990Z,3.80
2018-09-13T09:21:43.217Z,4.47
2018-09-13T09:24:11.465Z,4.90
2018-09-13T09:26:39.604Z,4.57
2018-09-13T09:29:07.856Z,6.20
2018-09-13T09:31:36.047Z,4.03
2018-09-13T09:34:04.237Z,3.20
2018-09-13T09:36:32.512Z,6.93
2018-09-13T09:39:00.681Z,4.67
2018-09-13T09:41:28.877Z,4.87
2018-09-13T09:43:57.115Z,4.73
2018-09-13T09:46:25.328Z,3.83
2018-09-13T09:48:53.535Z,4.00
2018-09-13T09:51:21.747Z,3.50
2018-09-13T09:53:49.997Z,3.17
2018-09-13T09:56:18.280Z,8.73
2018-09-13T09:58:46.396Z,4.60
2018-09-13T10:01:19.967Z,9.63
2018-09-13T10:03:48.281Z,5.33
2018-09-13T10:06:16.496Z,4.90
2018-09-13T10:08:44.719Z,4.63
2018-09-13T10:11:12.903Z,4.00
2018-09-13T10:13:41.205Z,4.73
2018-09-13T10:17:17.634Z,3.70
2018-09-13T10:19:51.269Z,3.10
2018-09-13T10:22:24.700Z,6.57
2018-09-13T10:24:58.357Z,4.60
2018-09-13T10:27:31.949Z,3.47
2018-09-13T10:30:05.634Z,5.40
2018-09-13T10:32:39.286Z,5.77
2018-09-13T10:35:12.933Z,4.00
2018-09-13T10:37:46.637Z,6.20
2018-09-13T10:40:20.477Z,3.77
2018-09-13T10:42:54.178Z,4.83
2018-09-13T10:45:27.796Z,4.57
2018-09-13T10:48:01.475Z,3.40
2018-09-13T10:50:33.956Z,5.73
2018-09-13T10:53:06.305Z,6.10
2018-09-13T10:55:34.594Z,3.93
2018-09-13T10:58:02.815Z,5.70
2018-09-13T11:00:31.030Z,5.00
2018-09-13T11:02:59.305Z,4.00
2018-09-13T11:05:27.523Z,4.27
2018-09-13T11:07:56.633Z,3.40
2018-09-13T11:10:24.922Z,5.87
2018-09-13T11:12:55.157Z,5.23
2018-09-13T11:15:28.889Z,9.80
2018-09-13T11:17:57.133Z,6.43
2018-09-13T11:20:25.344Z,6.00
2018-09-13T11:22:53.581Z,3.77
2018-09-13T11:25:22.316Z,3.80
2018-09-13T11:27:50.557Z,3.80
2018-09-13T11:30:18.818Z,3.60
2018-09-13T11:32:47.011Z,5.30
2018-09-13T11:35:15.270Z,5.70
2018-09-13T11:37:43.729Z,3.47
2018-09-13T11:40:12.754Z,6.47
2018-09-13T11:42:41.436Z,6.30
2018-09-13T11:45:10.024Z,6.40
2018-09-13T11:47:39.135Z,5.53
2018-09-13T11:50:07.353Z,5.03
2018-09-13T11:52:35.605Z,5.50
2018-09-13T11:55:03.950Z,6.20
2018-09-13T11:57:32.233Z,5.83
2018-09-13T12:00:00.537Z,4.63
2018-09-13T12:02:29.599Z,7.73
2018-09-13T12:04:57.774Z,4.73
2018-09-13T12:07:26.053Z,3.93
2018-09-13T12:09:54.499Z,3.77
2018-09-13T12:12:22.899Z,4.20
2018-09-13T12:14:51.169Z,4.30
2018-09-13T12:17:19.465Z,3.77
2018-09-13T12:19:47.722Z,5.17
2018-09-13T12:22:16.080Z,2.83
2018-09-13T12:24:44.285Z,4.27
2018-09-13T12:27:12.520Z,4.10
2018-09-13T12:29:40.788Z,4.80
2018-09-13T12:32:09.023Z,4.57
2018-09-13T12:34:37.279Z,3.80
2018-09-13T12:37:05.514Z,5.23
2018-09-13T12:39:33.778Z,7.10
2018-09-13T12:42:02.005Z,4.63
2018-09-13T12:44:30.220Z,3.73
2018-09-13T12:46:58.461Z,6.33
2018-09-13T12:49:26.769Z,4.97
2018-09-13T12:51:55.083Z,7.23
2018-09-13T12:54:23.305Z,6.87
2018-09-13T12:56:52.136Z,4.50
2018-09-13T12:59:20.394Z,4.47
2018-09-13T13:01:48.708Z,3.07
2018-09-13T13:04:17.074Z,4.10
2018-09-13T13:06:45.630Z,4.40
2018-09-13T13:09:13.766Z,3.77
2018-09-13T13:11:42.036Z,7.07
2018-09-13T13:14:10.371Z,5.80
2018-09-13T13:16:38.725Z,4.70
2018-09-13T13:19:07.131Z,6.27
2018-09-13T13:21:35.816Z,5.40
2018-09-13T13:24:04.156Z,8.60
2018-09-13T13:26:32.353Z,7.67
2018-09-13T13:29:00.609Z,9.53
2018-09-13T13:31:29.058Z,6.67
2018-09-13T13:33:57.314Z,6.50
2018-09-13T13:36:25.680Z,6.50
2018-09-13T13:38:53.952Z,8.03
2018-09-13T13:41:22.229Z,7.10
2018-09-13T13:43:50.543Z,5.20
2018-09-13T13:46:18.800Z,7.33
2018-09-13T13:48:47.016Z,4.23
2018-09-13T13:51:15.239Z,5.10
2018-09-13T13:53:43.564Z,5.60
2018-09-13T13:56:12.292Z,6.47
2018-09-13T13:58:40.581Z,9.07
2018-09-13T14:01:08.786Z,8.43
2018-09-13T14:03:37.308Z,5.87
2018-09-13T14:06:05.580Z,4.77
2018-09-13T14:08:33.802Z,6.03
2018-09-13T14:11:02.125Z,4.70
2018-09-13T14:13:30.593Z,4.30
2018-09-13T14:15:58.987Z,5.87
2018-09-13T14:18:27.261Z,6.20
2018-09-13T14:20:55.621Z,7.40
2018-09-13T14:23:23.798Z,5.93
2018-09-13T14:25:51.979Z,4.90
2018-09-13T14:28:20.239Z,5.53
2018-09-13T14:30:48.450Z,10.00
2018-09-13T14:33:16.721Z,10.60
2018-09-13T14:35:45.022Z,8.50
2018-09-13T14:38:13.318Z,7.97
2018-09-13T14:40:41.630Z,11.80
2018-09-13T14:43:10.029Z,9.40
2018-09-13T14:45:38.248Z,7.17
2018-09-13T14:48:06.265Z,7.07
2018-09-13T14:50:34.545Z,7.43
2018-09-13T14:53:02.878Z,8.27
2018-09-13T14:55:31.165Z,6.70
2018-09-13T14:57:59.510Z,7.00
2018-09-13T15:00:27.745Z,6.27
2018-09-13T15:02:56.125Z,8.73
2018-09-13T15:05:24.409Z,6.80
2018-09-13T15:07:52.647Z,6.87
2018-09-13T15:10:20.991Z,6.33
2018-09-13T15:12:49.374Z,7.80
2018-09-13T15:15:18.246Z,8.50
2018-09-13T15:17:46.657Z,9.70
2018-09-13T15:20:15.152Z,9.80
2018-09-13T15:22:43.517Z,7.70
2018-09-13T15:25:12.509Z,8.37
2018-09-13T15:27:40.873Z,7.40
2018-09-13T15:30:09.142Z,12.63
2018-09-13T15:32:37.379Z,7.50
2018-09-13T15:35:05.722Z,7.63
2018-09-13T15:37:34.035Z,7.30
2018-09-13T15:40:02.278Z,7.13
2018-09-13T15:42:30.889Z,9.83
2018-09-13T15:44:59.249Z,7.73
2018-09-13T15:47:27.506Z,8.70
2018-09-13T15:49:56.153Z,10.60
2018-09-13T15:52:24.399Z,9.40
2018-09-13T15:54:52.658Z,10.03
2018-09-13T15:57:20.901Z,10.33
2018-09-13T15:59:49.157Z,9.33
2018-09-13T16:02:18.196Z,8.93
2018-09-13T16:04:46.548Z,10.10
2018-09-13T16:07:14.757Z,10.73
2018-09-13T16:09:43.133Z,13.40
2018-09-13T16:12:11.455Z,12.70
2018-09-13T16:14:39.673Z,11.73
2018-09-13T16:17:07.975Z,11.43
2018-09-13T16:19:36.209Z,13.60
2018-09-13T16:22:04.430Z,16.27
2018-09-13T16:24:32.689Z,13.27
2018-09-13T16:27:01.087Z,14.50
2018-09-13T16:29:29.355Z,12.23
2018-09-13T16:31:57.752Z,11.77
2018-09-13T16:34:26.180Z,10.40
2018-09-13T16:37:04.717Z,12.63
2018-09-13T16:39:38.219Z,11.73
2018-09-13T16:42:12.506Z,11.47
2018-09-13T16:44:46.375Z,12.83
2018-09-13T16:47:25.744Z,11.57
2018-09-13T16:49:53.921Z,12.37
2018-09-13T16:52:22.195Z,13.03
2018-09-13T16:54:50.581Z,13.20
2018-09-13T16:57:18.853Z,11.83
2018-09-13T16:59:47.119Z,14.40
2018-09-13T17:02:15.353Z,13.50
2018-09-13T17:04:43.610Z,10.60
2018-09-13T17:07:11.906Z,12.23
2018-09-13T17:09:40.179Z,10.87
2018-09-13T17:12:09.140Z,12.83
2018-09-13T17:14:37.410Z,12.30
2018-09-13T17:17:05.693Z,9.43
2018-09-13T17:19:33.985Z,12.33
2018-09-13T17:22:02.846Z,10.90
2018-09-13T17:24:31.150Z,13.23
2018-09-13T17:26:59.537Z,14.57
2018-09-13T17:29:27.766Z,12.50
2018-09-13T17:31:55.987Z,11.97
2018-09-13T17:34:24.246Z,12.10
2018-09-13T17:36:52.597Z,40.90
2018-09-13T17:39:20.818Z,24.97
2018-09-13T17:41:49.173Z,14.20
2018-09-13T17:44:17.584Z,13.60
2018-09-13T17:46:45.878Z,10.00
2018-09-13T17:49:14.147Z,11.57
2018-09-13T17:51:42.405Z,11.13
2018-09-13T17:54:10.809Z,13.37
2018-09-13T17:56:39.178Z,13.40
2018-09-13T17:59:07.520Z,12.70
2018-09-13T18:01:36.853Z,21.10
2018-09-13T18:04:05.310Z,12.70
2018-09-13T18:06:33.805Z,14.20
2018-09-13T18:09:02.058Z,12.43
2018-09-13T18:11:30.410Z,14.70
2018-09-13T18:13:58.953Z,14.20
2018-09-13T18:16:27.409Z,12.23
2018-09-13T18:18:56.682Z,13.53
2018-09-13T18:21:25.173Z,15.30
2018-09-13T18:23:53.651Z,13.67
2018-09-13T18:26:22.137Z,15.33
2018-09-13T18:28:50.643Z,12.67
2018-09-13T18:31:18.893Z,12.37
2018-09-13T18:33:47.487Z,12.87
2018-09-13T18:36:15.972Z,13.57
2018-09-13T18:38:44.193Z,12.17
2018-09-13T18:41:12.407Z,14.83
2018-09-13T18:43:40.766Z,13.57
2018-09-13T18:46:09.102Z,13.47
2018-09-13T18:48:37.322Z,12.67
2018-09-13T18:51:05.567Z,15.70
2018-09-13T18:53:33.814Z,11.90
2018-09-13T18:56:02.143Z,12.60
2018-09-13T18:58:30.365Z,15.40
2018-09-13T19:00:59.099Z,11.77
2018-09-13T19:03:27.314Z,13.53
2018-09-13T19:05:55.552Z,14.97
2018-09-13T19:08:23.913Z,12.90
2018-09-13T19:10:52.240Z,13.00
2018-09-13T19:13:20.425Z,13.53
2018-09-13T19:15:48.810Z,14.90
2018-09-13T19:18:17.081Z,12.50
2018-09-13T19:20:47.521Z,17.37
2018-09-13T19:23:16.226Z,12.13
2018-09-13T19:25:44.533Z,16.03
2018-09-13T19:28:12.858Z,14.03
2018-09-13T19:30:41.100Z,18.17
2018-09-13T19:33:09.301Z,15.77
2018-09-13T19:35:38.296Z,17.13
2018-09-13T19:38:06.521Z,14.83
2018-09-13T19:40:34.861Z,15.37
2018-09-13T19:43:03.107Z,14.70
2018-09-13T19:45:31.330Z,15.33
2018-09-13T19:47:59.566Z,16.80
2018-09-13T19:50:27.838Z,18.73
2018-09-13T19:52:56.035Z,17.10
2018-09-13T19:55:24.285Z,16.10
2018-09-13T19:57:52.610Z,18.20
2018-09-13T20:00:20.857Z,15.23
2018-09-13T20:02:49.262Z,16.50
2018-09-13T20:05:17.564Z,16.23
2018-09-13T20:07:45.771Z,13.97
2018-09-13T20:10:14.013Z,13.40
2018-09-13T20:12:42.433Z,14.53
2018-09-13T20:15:10.674Z,19.13
2018-09-13T20:17:38.890Z,14.73
2018-09-13T20:20:07.166Z,14.13
2018-09-13T20:22:35.401Z,14.40
2018-09-13T20:25:03.676Z,22.33
2018-09-13T20:27:31.960Z,14.27
2018-09-13T20:30:00.166Z,15.63
2018-09-13T20:32:28.459Z,12.03
2018-09-13T20:34:56.821Z,14.53
2018-09-13T20:37:25.053Z,13.23
2018-09-13T20:39:53.294Z,12.67
2018-09-13T20:42:21.548Z,18.17
2018-09-13T20:44:49.809Z,15.83
2018-09-13T20:47:18.222Z,12.13
2018-09-13T20:49:46.476Z,14.43
2018-09-13T20:52:15.011Z,16.00
2018-09-13T20:54:43.259Z,16.00
2018-09-13T20:57:11.515Z,12.83
2018-09-13T20:59:39.731Z,15.20
2018-09-13T21:02:08.390Z,14.57
2018-09-13T21:04:36.653Z,15.03
2018-09-13T21:07:04.981Z,14.60
2018-09-13T21:09:33.286Z,14.80
2018-09-13T21:12:01.526Z,12.83
2018-09-13T21:14:30.743Z,12.00
2018-09-13T21:16:59.069Z,13.83
2018-09-13T21:19:27.273Z,12.27
2018-09-13T21:21:55.515Z,13.83
2018-09-13T21:24:24.000Z,13.10
2018-09-13T21:26:52.200Z,13.03
2018-09-13T21:29:20.491Z,13.40
2018-09-13T21:31:48.673Z,16.03
2018-09-13T21:34:16.885Z,15.20
2018-09-13T21:36:45.125Z,14.03
2018-09-13T21:39:13.649Z,17.40
2018-09-13T21:41:41.913Z,14.10
2018-09-13T21:44:10.521Z,14.00
2018-09-13T21:46:38.745Z,15.00
2018-09-13T21:49:06.962Z,13.83
2018-09-13T21:51:35.242Z,15.37
2018-09-13T21:54:03.489Z,13.43
2018-09-13T21:56:31.737Z,13.93
2018-09-13T21:59:00.131Z,14.90
2018-09-13T22:01:28.633Z,14.53
2018-09-13T22:03:57.101Z,13.70
2018-09-13T22:06:25.461Z,14.47
2018-09-13T22:08:53.726Z,12.07
2018-09-13T22:11:22.011Z,14.77
2018-09-13T22:13:50.216Z,13.93
2018-09-13T22:16:18.461Z,15.23
2018-09-13T22:18:46.711Z,15.13
2018-09-13T22:21:15.033Z,16.50
2018-09-13T22:23:43.290Z,17.43
2018-09-13T22:26:11.525Z,13.90
2018-09-13T22:28:39.757Z,17.33
2018-09-13T22:31:07.966Z,17.37
2018-09-13T22:33:36.185Z,15.43
2018-09-13T22:36:04.420Z,14.87
2018-09-13T22:38:32.686Z,18.87
2018-09-13T22:41:00.925Z,19.67
2018-09-13T22:43:33.605Z,17.93
2018-09-13T22:46:02.020Z,17.90
2018-09-13T22:48:30.262Z,17.70
2018-09-13T22:50:58.469Z,16.37
2018-09-13T22:53:26.717Z,17.60
2018-09-13T22:55:54.903Z,22.63
2018-09-13T22:58:23.122Z,22.80
2018-09-13T23:00:55.601Z,20.87
2018-09-13T23:03:23.813Z,21.10
2018-09-13T23:05:52.101Z,24.70
2018-09-13T23:08:20.366Z,22.10
2018-09-13T23:10:48.655Z,20.73
2018-09-13T23:13:16.911Z,21.47
2018-09-13T23:15:45.256Z,21.47
2018-09-13T23:18:13.504Z,21.60
2018-09-13T23:20:42.053Z,19.50
2018-09-13T23:23:10.324Z,22.07
2018-09-13T23:25:38.913Z,19.87
2018-09-13T23:28:07.152Z,16.83
2018-09-13T23:30:35.437Z,15.73
2018-09-13T23:33:03.761Z,15.90
2018-09-13T23:35:31.937Z,12.53
2018-09-13T23:38:00.213Z,15.33
2018-09-13T23:40:28.746Z,12.53
2018-09-13T23:42:57.080Z,11.57
2018-09-13T23:45:25.283Z,9.07
2018-09-13T23:47:53.477Z,9.90
2018-09-13T23:50:21.721Z,11.23
2018-09-13T23:52:49.920Z,9.50
2018-09-13T23:55:18.191Z,13.57
2018-09-13T23:57:46.450Z,14.10
